Time;durP1;ratioP1;P1;durP2;ratioP2;P2;SDS_P1;SDS_P2;PMS_P1;PMS_P2;Temp;Humidity;BMP_temperature;BMP_pressure;BME280_temperature;BME280_humidity;BME280_pressure;Samples;Min_cycle;Max_cycle;Signal;HPM_P1;HPM_P2
2020/12/24 00:01:33;;;;;;;5.28;1.10;;;;;;;6.64;66.38;99332.69;4901018;29;20399;-92
2020/12/24 00:04:04;;;;;;;2.50;0.80;;;;;;;6.84;66.59;99378.44;4900755;29;20048;-91
2020/12/24 00:06:30;;;;;;;4.55;1.20;;;;;;;6.60;66.17;99326.13;4899962;29;20056;-92
2020/12/24 00:08:58;;;;;;;2.70;1.45;;;;;;;6.39;66.21;99302.94;4902120;29;20472;-92
2020/12/24 00:11:25;;;;;;;2.22;0.80;;;;;;;6.40;66.46;99312.34;4905090;29;20492;-92
2020/12/24 00:13:51;;;;;;;3.30;0.88;;;;;;;7.34;66.31;99458.81;4903100;29;20131;-93
2020/12/24 00:16:25;;;;;;;4.07;1.20;;;;;;;6.34;66.00;99282.56;4899922;29;20067;-93
2020/12/24 00:18:51;;;;;;;2.10;0.60;;;;;;;7.26;66.27;99447.44;4900790;29;20461;-93
2020/12/24 00:21:17;;;;;;;3.65;0.82;;;;;;;6.38;66.22;99306.50;4901256;29;20060;-93
2020/12/24 00:23:43;;;;;;;1.95;0.70;;;;;;;6.42;66.51;99332.03;4889531;29;20056;-92
2020/12/24 00:26:12;;;;;;;3.33;0.80;;;;;;;9.64;66.59;99823.84;4900632;29;20071;-94
2020/12/24 00:28:38;;;;;;;1.65;0.60;;;;;;;6.21;66.24;99295.03;4918281;29;20142;-94
2020/12/24 00:31:07;;;;;;;1.45;0.60;;;;;;;8.30;66.47;99627.78;4900952;29;20060;-93
2020/12/24 00:33:34;;;;;;;2.50;1.10;;;;;;;6.34;66.52;99318.91;4899047;29;20484;-92
2020/12/24 00:36:01;;;;;;;2.90;0.70;;;;;;;6.55;66.00;99336.13;4900195;29;20052;-93
2020/12/24 00:38:28;;;;;;;11.32;1.75;;;;;;;6.06;66.46;99254.88;4901943;29;20083;-93
2020/12/24 00:40:54;;;;;;;1.38;0.60;;;;;;;6.53;66.05;99340.63;4901623;29;20090;-93
2020/12/24 00:43:22;;;;;;;2.92;0.70;;;;;;;6.21;65.67;99276.88;4900688;29;20143;-93
2020/12/24 00:45:48;;;;;;;1.60;1.00;;;;;;;9.30;66.35;99780.09;4899989;29;20120;-93
2020/12/24 00:48:14;;;;;;;1.42;0.60;;;;;;;9.59;66.54;99812.06;4909887;29;20063;-92
2020/12/24 00:50:43;;;;;;;2.78;0.70;;;;;;;6.23;66.07;99282.72;4909152;29;20128;-93
2020/12/24 00:53:14;;;;;;;2.95;1.35;;;;;;;8.28;66.13;99616.69;4900887;29;20064;-93
2020/12/24 00:55:40;;;;;;;1.60;0.60;;;;;;;6.41;66.36;99329.59;4908850;29;20044;-93
2020/12/24 00:58:06;;;;;;;0.50;0.45;;;;;;;6.43;66.08;99315.50;4928186;29;20059;-93
2020/12/24 01:00:34;;;;;;;1.48;0.75;;;;;;;7.04;66.29;99427.78;4913713;29;20048;-92
2020/12/24 01:03:04;;;;;;;1.48;0.60;;;;;;;9.69;66.52;99874.66;4902434;29;20147;-93
2020/12/24 01:05:34;;;;;;;2.20;0.50;;;;;;;8.26;66.27;99624.66;4901666;29;20135;-92
2020/12/24 01:08:01;;;;;;;1.40;0.57;;;;;;;5.88;66.16;99255.53;4901101;29;20382;-93
2020/12/24 01:10:30;;;;;;;1.50;0.55;;;;;;;5.84;65.78;99266.31;4905990;29;20052;-93
2020/12/24 01:12:56;;;;;;;1.13;0.40;;;;;;;5.79;66.02;99275.34;4920311;29;20059;-93
2020/12/24 01:15:23;;;;;;;1.10;0.57;;;;;;;9.52;66.51;99872.81;4904869;29;20488;-93
2020/12/24 01:17:52;;;;;;;2.67;0.60;;;;;;;8.26;66.55;99655.91;4919837;29;20054;-92
2020/12/24 01:20:18;;;;;;;1.98;1.00;;;;;;;5.91;66.69;99299.38;4902274;29;20059;-93
2020/12/24 01:22:44;;;;;;;3.30;0.88;;;;;;;6.15;66.48;99311.97;4905514;29;20479;-92
2020/12/24 01:25:11;;;;;;;1.55;0.50;;;;;;;6.64;66.32;99388.03;4908612;29;20052;-93
2020/12/24 01:27:37;;;;;;;2.05;0.55;;;;;;;5.63;66.25;99236.16;4903859;29;20056;-92
2020/12/24 01:30:04;;;;;;;1.60;0.50;;;;;;;6.08;66.26;99303.09;4908747;29;20067;-93
2020/12/24 01:32:31;;;;;;;2.92;0.57;;;;;;;8.39;66.50;99680.84;4902665;29;20056;-93
2020/12/24 01:34:57;;;;;;;2.70;0.45;;;;;;;6.01;66.65;99287.25;4897380;29;20158;-92
2020/12/24 01:37:24;;;;;;;2.05;0.60;;;;;;;5.79;66.27;99259.78;4904700;29;20048;-93
2020/12/24 01:39:51;;;;;;;3.13;0.70;;;;;;;5.39;65.88;99195.06;4904441;29;20060;-93
2020/12/24 01:42:19;;;;;;;3.47;0.50;;;;;;;5.91;66.52;99301.97;4904410;29;20131;-92
2020/12/24 01:44:49;;;;;;;1.88;0.40;;;;;;;5.36;66.06;99197.91;4920517;29;20043;-93
2020/12/24 01:47:17;;;;;;;2.75;0.70;;;;;;;5.61;66.51;99225.09;4904709;29;20054;-93
2020/12/24 01:49:43;;;;;;;1.17;0.60;;;;;;;5.60;66.37;99218.28;4902620;29;20048;-92
2020/12/24 01:52:39;;;;;;;1.33;0.65;;;;;;;6.11;66.29;99297.63;4904208;29;20060;-93
2020/12/24 01:55:11;;;;;;;1.08;0.60;;;;;;;5.84;66.02;99267.13;4903493;29;20175;-93
2020/12/24 01:57:38;;;;;;;1.85;0.73;;;;;;;6.02;65.89;99307.06;4903483;29;20385;-93
2020/12/24 02:00:06;;;;;;;1.08;0.60;;;;;;;9.38;66.90;99832.38;4914302;29;20060;-93
2020/12/24 02:02:33;;;;;;;3.15;0.70;;;;;;;9.10;66.51;99795.03;4904160;29;20075;-93
2020/12/24 02:04:59;;;;;;;1.27;0.60;;;;;;;5.71;66.18;99267.41;4912967;29;20075;-93
2020/12/24 02:07:28;;;;;;;1.17;0.60;;;;;;;5.91;66.27;99307.16;4904571;29;20108;-92
2020/12/24 02:09:59;;;;;;;2.33;0.80;;;;;;;5.58;66.43;99231.38;4905416;29;20048;-91
2020/12/24 02:12:26;;;;;;;0.77;0.50;;;;;;;5.32;66.32;99204.31;4904690;29;20639;-93
2020/12/24 02:14:53;;;;;;;2.95;0.93;;;;;;;6.05;66.08;99310.34;4905082;29;20083;-93
2020/12/24 02:17:19;;;;;;;1.10;0.50;;;;;;;5.57;66.58;99247.88;4906139;29;20456;-94
2020/12/24 02:19:48;;;;;;;1.25;0.60;;;;;;;5.89;66.54;99280.53;4921531;29;20056;-92
2020/12/24 02:22:14;;;;;;;1.17;0.60;;;;;;;8.29;66.49;99664.41;4910149;29;20063;-94
2020/12/24 02:24:42;;;;;;;0.68;0.43;;;;;;;6.00;66.31;99293.38;4908384;29;20079;-93
2020/12/24 02:27:11;;;;;;;1.33;0.55;;;;;;;5.53;66.42;99235.31;4906129;29;20054;-92
2020/12/24 02:29:38;;;;;;;1.33;0.60;;;;;;;5.43;66.50;99222.38;4904901;29;20083;-93
2020/12/24 02:32:09;;;;;;;2.15;0.60;;;;;;;5.63;66.65;99232.75;4903362;29;20052;-93
2020/12/24 02:34:37;;;;;;;1.17;0.60;;;;;;;6.91;66.47;99452.31;4904226;29;20464;-94
2020/12/24 02:37:03;;;;;;;2.00;0.50;;;;;;;5.49;66.22;99206.25;4905105;29;20190;-92
2020/12/24 02:39:34;;;;;;;2.17;0.68;;;;;;;5.34;66.38;99184.25;4904307;29;20083;-93
2020/12/24 02:42:00;;;;;;;1.33;0.50;;;;;;;6.11;66.60;99331.38;4903352;29;20128;-91
2020/12/24 02:44:29;;;;;;;2.33;0.55;;;;;;;5.69;66.38;99247.75;4909364;29;20054;-92
2020/12/24 02:46:58;;;;;;;2.67;0.68;;;;;;;9.32;66.84;99806.88;4909560;29;20055;-92
2020/12/24 02:49:39;;;;;;;1.17;0.40;;;;;;;5.39;66.24;99179.50;4910282;29;20507;-93
2020/12/24 02:52:05;;;;;;;2.17;0.40;;;;;;;5.22;66.21;99159.44;4904931;29;20083;-93
2020/12/24 02:54:32;;;;;;;0.50;0.50;;;;;;;6.44;66.87;99361.28;4903737;29;20056;-92
2020/12/24 02:57:06;;;;;;;1.35;0.50;;;;;;;9.03;66.89;99755.63;4904558;29;20090;-93
2020/12/24 02:59:33;;;;;;;3.25;0.68;;;;;;;9.11;67.34;99775.78;4906315;29;20061;-93
2020/12/24 03:01:59;;;;;;;0.45;0.30;;;;;;;5.73;66.20;99249.13;4900526;29;20052;-93
2020/12/24 03:04:25;;;;;;;1.65;0.57;;;;;;;5.61;66.25;99219.09;4898509;29;20055;-92
2020/12/24 03:06:53;;;;;;;2.00;0.50;;;;;;;7.11;66.78;99432.28;4902446;29;20052;-92
2020/12/24 03:09:19;;;;;;;1.08;0.60;;;;;;;5.92;66.83;99248.28;4903923;29;20063;-93
2020/12/24 03:11:51;;;;;;;1.15;0.70;;;;;;;6.11;66.51;99268.25;4903071;29;20052;-94
2020/12/24 03:14:18;;;;;;;1.95;0.50;;;;;;;5.68;66.21;99209.78;4905156;29;20135;-94
2020/12/24 03:16:45;;;;;;;1.20;0.50;;;;;;;5.36;66.06;99172.00;4905009;29;20084;-92
2020/12/24 03:19:14;;;;;;;0.93;0.50;;;;;;;7.12;66.45;99414.91;4903596;29;20054;-92
2020/12/24 03:21:40;;;;;;;1.08;0.45;;;;;;;9.08;66.54;99734.34;4899045;29;20135;-91
2020/12/24 03:24:07;;;;;;;1.58;0.50;;;;;;;5.81;66.51;99216.34;4904102;29;20058;-92
2020/12/24 03:26:33;;;;;;;0.60;0.60;;;;;;;5.62;66.28;99210.34;4899968;29;20048;-92
2020/12/24 03:28:59;;;;;;;0.68;0.57;;;;;;;5.56;66.44;99186.59;4903615;29;20548;-93
2020/12/24 03:31:29;;;;;;;1.38;0.43;;;;;;;8.07;67.01;99571.84;4902669;29;20055;-93
2020/12/24 03:33:55;;;;;;;0.70;0.40;;;;;;;5.75;66.62;99221.28;4889889;29;20134;-93
2020/12/24 03:36:22;;;;;;;1.15;0.47;;;;;;;9.21;66.49;99766.13;4905663;29;20044;-92
2020/12/24 03:38:51;;;;;;;0.80;0.50;;;;;;;7.73;66.39;99533.28;4912585;29;20055;-93
2020/12/24 03:41:18;;;;;;;1.48;0.73;;;;;;;6.22;66.30;99291.47;4904548;29;20062;-93
2020/12/24 03:43:48;;;;;;;1.17;0.70;;;;;;;5.64;66.04;99209.25;4902518;29;20056;-93
2020/12/24 03:46:14;;;;;;;1.25;0.60;;;;;;;6.33;66.58;99319.88;4907582;29;20423;-94
2020/12/24 03:48:45;;;;;;;0.93;0.60;;;;;;;5.28;66.40;99140.75;4904208;29;20055;-93
2020/12/24 03:51:17;;;;;;;0.60;0.60;;;;;;;4.95;66.00;99105.69;4910566;29;20044;-93
2020/12/24 03:53:44;;;;;;;0.70;0.70;;;;;;;6.12;66.20;99280.28;4896631;29;20112;-93
2020/12/24 03:56:10;;;;;;;1.65;0.85;;;;;;;5.45;66.12;99181.53;4901499;29;20480;-94
2020/12/24 03:58:39;;;;;;;0.93;0.60;;;;;;;8.60;66.64;99678.03;4902871;29;20052;-94
2020/12/24 04:01:09;;;;;;;1.63;0.77;;;;;;;5.22;66.06;99121.38;4902138;29;20052;-93
2020/12/24 04:03:36;;;;;;;1.38;0.65;;;;;;;6.07;65.78;99264.28;4895196;29;20075;-93
2020/12/24 04:06:08;;;;;;;0.43;0.43;;;;;;;5.67;65.75;99228.91;4901958;29;20080;-93
2020/12/24 04:08:35;;;;;;;0.50;0.50;;;;;;;5.57;66.36;99237.53;4918140;29;20052;-93
2020/12/24 04:11:05;;;;;;;0.65;0.40;;;;;;;5.07;65.76;99133.94;4916090;29;20056;-93
2020/12/24 04:13:35;;;;;;;0.40;0.38;;;;;;;5.21;66.12;99160.38;4911135;29;20082;-92
2020/12/24 04:16:03;;;;;;;0.43;0.40;;;;;;;5.44;65.59;99190.28;4905444;29;20115;-92
2020/12/24 04:18:32;;;;;;;1.02;0.40;;;;;;;5.80;65.89;99250.22;4901990;29;20052;-92
2020/12/24 04:20:59;;;;;;;0.35;0.30;;;;;;;6.34;65.88;99334.50;4900830;29;20072;-93
2020/12/24 04:23:25;;;;;;;0.80;0.32;;;;;;;4.95;65.78;99124.63;4901849;29;20143;-93
2020/12/24 04:25:58;;;;;;;1.17;0.40;;;;;;;5.37;65.33;99202.13;4904205;29;20762;-93
2020/12/24 04:28:24;;;;;;;0.43;0.30;;;;;;;5.48;65.45;99208.97;4902743;29;20079;-93
2020/12/24 04:30:50;;;;;;;0.38;0.38;;;;;;;7.55;65.79;99546.22;4921662;29;20060;-93
2020/12/24 04:33:16;;;;;;;0.63;0.30;;;;;;;7.44;65.57;99531.59;4902710;29;20175;-93
2020/12/24 04:35:45;;;;;;;0.22;0.20;;;;;;;5.08;65.15;99169.25;4903627;29;20479;-93
2020/12/24 04:38:11;;;;;;;0.65;0.20;;;;;;;5.77;65.09;99284.22;4898353;29;20056;-93
2020/12/24 04:40:37;;;;;;;0.30;0.28;;;;;;;7.32;65.25;99517.13;4899373;29;20079;-93
2020/12/24 04:43:04;;;;;;;0.40;0.22;;;;;;;6.20;65.46;99356.50;4911378;29;20048;-92
2020/12/24 04:45:34;;;;;;;0.30;0.20;;;;;;;4.97;64.75;99187.50;4919506;29;20086;-93
2020/12/24 04:48:00;;;;;;;0.20;0.20;;;;;;;5.19;65.20;99234.88;4904964;29;20108;-93
2020/12/24 04:50:32;;;;;;;0.30;0.30;;;;;;;5.29;65.23;99227.91;4905261;29;20074;-93
2020/12/24 04:52:59;;;;;;;0.20;0.20;;;;;;;8.23;65.23;99729.13;4903386;29;20136;-93
2020/12/24 04:55:26;;;;;;;0.20;0.20;;;;;;;6.16;65.08;99401.88;4904826;29;20040;-92
2020/12/24 04:57:55;;;;;;;0.20;0.20;;;;;;;6.53;65.11;99473.09;4904993;29;20123;-93
2020/12/24 05:00:22;;;;;;;0.20;0.20;;;;;;;4.84;65.51;99203.25;4904757;29;20120;-92
2020/12/24 05:03:07;;;;;;;1.20;0.20;;;;;;;7.77;64.91;99636.97;4908922;29;20048;-93
2020/12/24 05:05:38;;;;;;;0.20;0.20;;;;;;;4.75;64.91;99187.72;4908000;29;20048;-93
2020/12/24 05:08:08;;;;;;;0.30;0.30;;;;;;;5.05;65.13;99229.09;4907404;29;20063;-93
2020/12/24 05:10:36;;;;;;;0.20;0.20;;;;;;;5.04;64.82;99239.59;4903374;29;20060;-93
2020/12/24 05:13:25;;;;;;;0.20;0.20;;;;;;;8.60;65.25;99783.09;4891302;29;20060;-94
2020/12/24 05:15:52;;;;;;;0.65;0.40;;;;;;;4.75;64.70;99211.00;4916325;29;20764;-93
2020/12/24 05:18:26;;;;;;;0.20;0.20;;;;;;;4.36;64.88;99146.97;4910895;29;20044;-93
2020/12/24 05:21:39;;;;;;;0.47;0.30;;;;;;;6.74;65.02;99512.78;4917395;29;20484;-94
2020/12/24 05:24:39;;;;;;;0.30;0.30;;;;;;;8.49;65.06;99796.31;4858667;29;20057;-92
2020/12/24 05:27:23;;;;;;;0.38;0.30;;;;;;;6.14;65.18;99452.28;4855939;29;20050;-93
2020/12/24 05:29:51;;;;;;;0.30;0.30;;;;;;;6.09;65.29;99463.03;4887996;29;20147;-93
2020/12/24 05:32:32;;;;;;;0.30;0.20;;;;;;;8.14;65.04;99792.47;4926839;29;20052;-93
2020/12/24 05:35:22;;;;;;;0.30;0.30;;;;;;;4.50;64.35;99213.09;4910800;29;20057;-93
2020/12/24 05:42:15;;;;;;;0.30;0.30;;;;;;;5.62;64.53;99402.25;4937693;29;20129;-93
2020/12/24 05:45:24;;;;;;;0.30;0.30;;;;;;;4.65;64.07;99262.75;4931249;29;20068;-94
2020/12/24 05:48:15;;;;;;;0.30;0.30;;;;;;;8.21;64.98;99831.81;4909911;29;20103;-93
2020/12/24 05:51:23;;;;;;;0.20;0.20;;;;;;;7.36;64.99;99700.53;4927789;29;20111;-93
2020/12/24 05:53:52;;;;;;;0.20;0.20;;;;;;;4.39;64.58;99272.72;4913019;29;20079;-93
2020/12/24 05:56:27;;;;;;;0.30;0.30;;;;;;;4.83;64.50;99318.19;4900434;29;20080;-95
2020/12/24 06:07:19;;;;;;;0.20;0.20;;;;;;;7.61;64.67;99790.25;4881145;29;20048;-93
2020/12/24 06:11:13;;;;;;;0.20;0.17;;;;;;;5.71;64.23;99516.44;4848084;29;20044;-93
2020/12/24 09:54:24;;;;;;;1.55;1.30;;;;;;;4.48;68.60;99582.56;4960983;23;20064;-94
2020/12/24 09:56:59;;;;;;;1.83;1.17;;;;;;;7.75;68.89;100081.38;4896922;29;20104;-94
2020/12/24 09:59:31;;;;;;;1.98;1.42;;;;;;;4.11;68.34;99518.16;4900519;29;20048;-94
2020/12/24 10:01:57;;;;;;;2.75;1.38;;;;;;;4.09;68.55;99512.28;4912323;29;20059;-94
2020/12/24 10:04:26;;;;;;;2.30;1.63;;;;;;;4.52;68.53;99565.03;4896569;29;20056;-94
2020/12/24 10:06:54;;;;;;;2.42;1.60;;;;;;;4.21;68.62;99519.09;4891388;29;20075;-94
2020/12/24 10:09:24;;;;;;;1.40;1.30;;;;;;;4.85;68.79;99615.94;4889245;29;20079;-94
2020/12/24 10:11:50;;;;;;;1.20;1.10;;;;;;;5.78;68.61;99750.22;4892082;29;20076;-94
2020/12/24 10:14:21;;;;;;;2.00;1.30;;;;;;;4.62;68.41;99587.50;4893258;29;20107;-94
2020/12/24 10:16:56;;;;;;;1.27;1.05;;;;;;;4.79;68.24;99601.69;4871064;29;20068;-94
2020/12/24 10:19:25;;;;;;;1.40;1.00;;;;;;;4.66;68.48;99570.78;4903201;29;20462;-94
2020/12/24 10:21:55;;;;;;;1.00;0.98;;;;;;;4.62;68.41;99571.94;4901970;29;20045;-94
2020/12/24 10:24:23;;;;;;;1.92;1.20;;;;;;;5.91;68.96;99756.06;4873129;29;20076;-94
2020/12/24 10:26:56;;;;;;;1.58;1.45;;;;;;;4.49;68.43;99550.59;4886881;29;20080;-95
2020/12/24 10:29:27;;;;;;;2.15;1.30;;;;;;;5.54;68.76;99709.75;4871062;29;20100;-94
2020/12/24 10:31:56;;;;;;;2.15;1.50;;;;;;;5.79;68.67;99754.44;4884897;29;20136;-93
2020/12/24 10:34:25;;;;;;;2.08;1.63;;;;;;;5.04;68.21;99631.66;4885163;29;20113;-94
2020/12/24 10:37:02;;;;;;;2.15;1.67;;;;;;;4.69;68.56;99575.72;4884348;29;20052;-93
2020/12/24 10:39:28;;;;;;;1.73;1.35;;;;;;;4.75;68.38;99583.94;4884535;29;20052;-94
2020/12/24 10:41:59;;;;;;;2.70;2.00;;;;;;;4.73;68.66;99559.94;4881323;29;20060;-94
2020/12/24 10:44:26;;;;;;;2.00;1.80;;;;;;;5.32;68.33;99638.06;4885341;29;20152;-94
2020/12/24 10:46:55;;;;;;;2.40;2.20;;;;;;;7.20;68.80;99973.28;4887898;29;20715;-93
2020/12/24 10:49:26;;;;;;;3.25;2.13;;;;;;;4.87;68.12;99560.47;4898893;29;20053;-93
2020/12/24 10:52:06;;;;;;;2.58;2.15;;;;;;;8.79;68.98;100202.00;4899953;29;20481;-94
2020/12/24 10:54:35;;;;;;;2.35;2.03;;;;;;;4.97;67.85;99563.16;4887250;29;20045;-94
2020/12/24 10:57:02;;;;;;;2.67;2.17;;;;;;;5.17;68.34;99613.38;4881423;29;20132;-93
2020/12/24 10:59:30;;;;;;;2.88;2.25;;;;;;;5.21;68.26;99626.91;4885068;29;20104;-94
2020/12/24 11:02:02;;;;;;;4.28;2.60;;;;;;;6.55;68.21;99837.44;4890875;29;20083;-94
2020/12/24 11:04:29;;;;;;;4.78;3.22;;;;;;;5.24;68.63;99621.50;4884215;29;20630;-94
2020/12/24 11:07:02;;;;;;;4.63;3.13;;;;;;;6.96;68.59;99873.00;4883279;29;20048;-92
2020/12/24 11:09:30;;;;;;;5.45;3.40;;;;;;;5.01;67.94;99600.81;4868834;29;20076;-93
2020/12/24 11:11:58;;;;;;;5.32;3.40;;;;;;;4.78;67.96;99547.44;4896828;29;20055;-93
2020/12/24 11:14:24;;;;;;;6.03;3.28;;;;;;;5.30;67.89;99631.34;4882585;29;20056;-94
2020/12/24 11:16:52;;;;;;;6.18;3.38;;;;;;;4.80;68.08;99550.75;4881509;29;20045;-93
2020/12/24 11:19:18;;;;;;;6.05;3.90;;;;;;;5.42;67.90;99640.72;4881652;29;20076;-93
2020/12/24 11:21:51;;;;;;;6.88;4.03;;;;;;;5.60;67.97;99641.00;4886064;29;20904;-94
2020/12/24 11:24:18;;;;;;;6.53;3.85;;;;;;;7.70;68.64;100005.44;4882888;29;20485;-92
2020/12/24 11:26:45;;;;;;;5.65;4.38;;;;;;;5.66;67.99;99657.84;4887039;29;20543;-94
2020/12/24 11:29:13;;;;;;;6.32;4.10;;;;;;;9.02;68.71;100180.94;4881429;29;20135;-93
2020/12/24 11:31:44;;;;;;;6.45;3.95;;;;;;;5.44;67.76;99651.81;4882377;29;20401;-93
2020/12/24 11:34:17;;;;;;;7.78;4.35;;;;;;;5.61;68.21;99658.19;4880123;29;20151;-93
2020/12/24 11:36:46;;;;;;;5.97;4.05;;;;;;;5.23;67.45;99602.50;4880164;29;20048;-93
2020/12/24 11:39:12;;;;;;;6.65;4.63;;;;;;;6.06;67.67;99722.88;4882000;29;20076;-92
2020/12/24 11:41:39;;;;;;;6.13;4.30;;;;;;;6.09;67.93;99745.97;4899372;29;20068;-91
2020/12/24 11:44:05;;;;;;;5.70;4.20;;;;;;;7.25;68.41;99913.91;4894849;29;20091;-90
2020/12/24 11:46:32;;;;;;;8.00;4.80;;;;;;;5.62;67.87;99652.06;4882132;29;20140;-91
2020/12/24 11:48:58;;;;;;;6.47;4.50;;;;;;;6.21;67.94;99738.97;4882496;29;20063;-91
2020/12/24 11:51:29;;;;;;;6.57;4.60;;;;;;;5.82;67.96;99686.78;4866942;29;20049;-91
2020/12/24 11:53:56;;;;;;;10.88;4.70;;;;;;;7.43;68.23;99927.97;4880001;29;20143;-92
2020/12/24 11:56:22;;;;;;;6.13;4.38;;;;;;;5.86;67.68;99682.97;4897806;29;20074;-91
2020/12/24 11:58:50;;;;;;;8.63;5.07;;;;;;;5.71;67.63;99653.06;4895272;29;20052;-91
2020/12/24 12:01:29;;;;;;;8.50;4.78;;;;;;;9.26;67.92;100183.19;4899684;29;20056;-91
2020/12/24 12:03:57;;;;;;;7.20;4.28;;;;;;;5.10;67.65;99557.81;4916478;29;20460;-93
2020/12/24 12:06:24;;;;;;;6.00;4.10;;;;;;;7.95;67.95;100004.22;4916431;29;20060;-94
2020/12/24 12:08:53;;;;;;;6.28;4.05;;;;;;;5.28;67.87;99584.81;4896125;29;20473;-93
2020/12/24 12:11:20;;;;;;;7.53;4.43;;;;;;;6.60;68.11;99786.75;4902305;29;20052;-93
2020/12/24 12:13:47;;;;;;;8.13;4.80;;;;;;;7.86;67.88;99991.16;4898350;29;20492;-94
2020/12/24 12:16:13;;;;;;;7.47;4.70;;;;;;;7.15;68.11;99873.09;4898509;29;20115;-93
2020/12/24 12:18:40;;;;;;;7.95;5.43;;;;;;;5.50;68.09;99621.94;4898533;29;20059;-93
2020/12/24 12:21:10;;;;;;;7.15;5.10;;;;;;;7.05;68.05;99885.22;4898342;29;20657;-90
2020/12/24 12:23:36;;;;;;;6.75;4.82;;;;;;;8.88;68.25;100159.47;4899960;29;20108;-90
2020/12/24 12:26:11;;;;;;;7.93;4.95;;;;;;;7.75;68.21;99973.84;4902135;29;20048;-92
2020/12/24 12:28:40;;;;;;;8.10;4.90;;;;;;;8.93;68.60;100185.16;4899793;29;20388;-91
2020/12/24 12:31:06;;;;;;;8.38;5.57;;;;;;;7.81;68.18;99983.72;4901480;29;20103;-92
2020/12/24 12:33:32;;;;;;;8.32;5.38;;;;;;;5.99;67.76;99694.00;4897760;29;20076;-92
2020/12/24 12:35:59;;;;;;;8.48;5.65;;;;;;;7.21;68.05;99866.53;4900239;29;20044;-92
2020/12/24 12:38:25;;;;;;;8.32;5.35;;;;;;;5.95;67.42;99695.19;4899527;29;20059;-92
2020/12/24 12:40:52;;;;;;;7.13;5.30;;;;;;;6.13;67.63;99705.84;4902706;29;20051;-93
2020/12/24 12:43:18;;;;;;;7.68;5.38;;;;;;;6.23;67.31;99734.44;4915226;29;20052;-93
2020/12/24 12:45:44;;;;;;;8.50;5.32;;;;;;;7.80;68.02;99969.88;4902073;29;20062;-94
2020/12/24 12:48:10;;;;;;;10.02;6.20;;;;;;;9.15;68.36;100192.78;4909495;29;20094;-92
2020/12/24 12:50:41;;;;;;;7.38;5.07;;;;;;;7.13;68.18;99869.78;4907265;29;20056;-95
2020/12/24 12:53:10;;;;;;;7.38;4.93;;;;;;;5.94;67.74;99678.00;4903037;29;20062;-94
2020/12/24 12:55:36;;;;;;;7.65;4.47;;;;;;;6.78;68.02;99822.53;4908360;29;20409;-95
2020/12/24 12:58:03;;;;;;;8.73;5.22;;;;;;;6.03;67.65;99695.38;4893380;29;20072;-94
2020/12/24 13:00:31;;;;;;;8.63;5.53;;;;;;;6.83;67.82;99825.56;4906930;29;20059;-95
2020/12/24 13:03:07;;;;;;;7.90;5.03;;;;;;;6.06;67.69;99690.91;4911645;29;20080;-95
2020/12/24 13:05:40;;;;;;;7.95;4.68;;;;;;;9.65;68.45;100287.63;4909787;29;20051;-95
2020/12/24 13:08:14;;;;;;;6.43;4.18;;;;;;;6.27;67.26;99738.44;4893766;29;20564;-94
2020/12/24 13:10:50;;;;;;;7.90;4.82;;;;;;;6.25;67.52;99722.97;4923256;29;20075;-94
2020/12/24 13:13:22;;;;;;;6.72;4.38;;;;;;;5.89;67.13;99674.91;4906524;29;20143;-95
2020/12/24 13:15:51;;;;;;;10.85;4.15;;;;;;;6.05;67.60;99704.84;4906491;29;20127;-95
2020/12/24 13:18:24;;;;;;;6.53;4.13;;;;;;;6.97;67.44;99853.00;4902642;29;20058;-94
2020/12/24 13:20:52;;;;;;;5.65;3.65;;;;;;;7.13;67.59;99879.38;4905743;29;20131;-95
2020/12/24 13:23:24;;;;;;;6.88;4.63;;;;;;;5.82;67.54;99664.22;4919000;29;20183;-95
2020/12/24 13:25:59;;;;;;;5.28;3.53;;;;;;;6.43;67.41;99738.81;4901818;29;20092;-95
2020/12/24 13:28:25;;;;;;;6.07;4.10;;;;;;;6.01;66.99;99699.91;4902399;29;20048;-94
2020/12/24 13:31:00;;;;;;;8.02;4.65;;;;;;;9.73;68.07;100287.78;4906108;29;20044;-93
2020/12/24 13:33:37;;;;;;;6.20;3.85;;;;;;;5.69;66.70;99657.59;4908900;29;20481;-95
2020/12/24 13:36:07;;;;;;;6.60;4.05;;;;;;;5.78;66.92;99675.78;4904968;29;20052;-94
2020/12/24 13:38:36;;;;;;;5.22;3.50;;;;;;;5.81;67.38;99669.53;4906918;29;20056;-95
2020/12/24 13:41:05;;;;;;;10.07;3.75;;;;;;;8.26;67.77;100049.28;4909172;29;20087;-95
2020/12/24 13:43:31;;;;;;;9.93;4.32;;;;;;;6.18;66.85;99741.78;4891283;29;20056;-95
2020/12/24 13:46:02;;;;;;;5.22;3.55;;;;;;;6.26;66.98;99744.56;4908499;29;20048;-93
2020/12/24 13:48:30;;;;;;;8.40;4.13;;;;;;;6.51;66.85;99795.28;4892065;29;20463;-92
2020/12/24 13:51:00;;;;;;;7.25;4.45;;;;;;;9.63;67.74;100276.50;4920534;29;20460;-92
2020/12/24 13:53:26;;;;;;;5.85;4.05;;;;;;;6.31;67.19;99776.19;4904950;29;20158;-92
2020/12/24 13:55:53;;;;;;;6.38;3.97;;;;;;;9.83;67.45;100320.75;4899827;29;20104;-92
2020/12/24 13:58:22;;;;;;;7.57;3.35;;;;;;;6.57;66.68;99804.34;4903573;29;20060;-92
2020/12/24 14:00:48;;;;;;;5.18;3.88;;;;;;;6.67;66.65;99816.44;4901984;29;20127;-92
2020/12/24 14:03:15;;;;;;;7.50;3.80;;;;;;;6.42;66.79;99802.09;4902373;29;20568;-93
2020/12/24 14:05:44;;;;;;;5.40;3.30;;;;;;;5.88;66.26;99724.38;4904517;29;20052;-93
2020/12/24 14:08:10;;;;;;;8.05;3.60;;;;;;;6.22;66.36;99758.78;4903370;29;20049;-92
2020/12/24 14:10:39;;;;;;;5.00;3.55;;;;;;;9.83;66.48;100361.75;4892655;29;20544;-92
2020/12/24 14:13:06;;;;;;;5.60;3.42;;;;;;;8.36;66.34;100150.09;4905124;29;20528;-93
2020/12/24 14:15:35;;;;;;;4.20;3.13;;;;;;;8.61;66.71;100154.88;4888631;29;20144;-93
2020/12/24 14:18:04;;;;;;;4.35;3.10;;;;;;;6.12;66.33;99773.44;4902020;29;20056;-92
2020/12/24 14:20:30;;;;;;;4.10;3.50;;;;;;;7.41;66.03;99981.09;4919207;29;20054;-91
2020/12/24 14:22:56;;;;;;;5.40;3.72;;;;;;;8.59;66.42;100162.03;4897879;29;20155;-91
2020/12/24 14:25:23;;;;;;;5.78;3.70;;;;;;;9.36;66.70;100293.59;4902637;29;20079;-91
2020/12/24 14:27:49;;;;;;;6.57;3.72;;;;;;;9.15;66.85;100257.19;4898629;29;20136;-91
2020/12/24 14:30:15;;;;;;;4.97;3.80;;;;;;;8.20;66.41;100135.75;4898122;29;20548;-90
2020/12/24 14:32:41;;;;;;;5.63;4.05;;;;;;;6.15;66.31;99819.91;4896895;29;20180;-91
2020/12/24 14:35:07;;;;;;;6.85;4.03;;;;;;;9.64;66.34;100356.47;4898773;29;20267;-91
2020/12/24 14:37:33;;;;;;;7.18;3.72;;;;;;;9.57;66.77;100367.44;4912829;29;20135;-91
2020/12/24 14:39:59;;;;;;;5.55;3.75;;;;;;;8.89;66.40;100260.22;4888646;29;20082;-91
2020/12/24 14:42:25;;;;;;;5.32;3.88;;;;;;;9.52;66.21;100359.19;4898430;29;20063;-92
2020/12/24 14:44:51;;;;;;;6.97;4.22;;;;;;;7.86;66.14;100090.88;4897183;29;20049;-92
2020/12/24 14:47:17;;;;;;;7.45;4.00;;;;;;;7.85;66.01;100114.47;4898227;29;20131;-91
2020/12/24 14:49:45;;;;;;;7.78;3.40;;;;;;;9.52;66.50;100379.25;4898977;29;20131;-91
2020/12/24 14:52:11;;;;;;;5.95;3.97;;;;;;;6.19;66.14;99853.31;4913770;29;20127;-91
2020/12/24 14:54:37;;;;;;;6.25;3.42;;;;;;;8.92;66.27;100293.88;4897685;29;20083;-91
2020/12/24 14:57:03;;;;;;;3.90;3.33;;;;;;;9.09;66.36;100330.72;4912935;29;20057;-91
2020/12/24 14:59:29;;;;;;;7.22;3.60;;;;;;;9.54;66.42;100401.66;4897093;29;20155;-91
2020/12/24 15:01:56;;;;;;;4.93;3.40;;;;;;;7.05;65.83;100037.78;4897754;29;20076;-93
2020/12/24 15:04:23;;;;;;;4.85;3.40;;;;;;;7.76;66.17;100142.91;4895470;29;20064;-91
2020/12/24 15:06:50;;;;;;;3.75;2.97;;;;;;;9.35;66.58;100399.78;4892388;29;20087;-91
2020/12/24 15:09:16;;;;;;;4.13;3.20;;;;;;;6.09;66.15;99893.94;4896861;29;20067;-91
2020/12/24 15:11:44;;;;;;;5.63;3.63;;;;;;;7.49;66.28;100103.56;4893419;29;20527;-91
2020/12/24 15:14:10;;;;;;;6.38;3.42;;;;;;;6.73;65.84;99991.00;4893159;29;20144;-93
2020/12/24 15:16:36;;;;;;;5.75;3.58;;;;;;;9.29;66.59;100402.13;4895252;29;20063;-93
2020/12/24 15:19:02;;;;;;;4.70;3.10;;;;;;;9.38;66.23;100432.63;4896359;29;20143;-93
2020/12/24 15:21:29;;;;;;;4.35;3.35;;;;;;;5.87;65.56;99874.00;4897032;29;20467;-93
2020/12/24 15:23:55;;;;;;;8.50;4.25;;;;;;;7.19;66.27;100084.28;4894580;29;20139;-93
2020/12/24 15:26:21;;;;;;;6.65;3.60;;;;;;;5.50;65.87;99830.22;4900255;29;20163;-94
2020/12/24 15:28:47;;;;;;;5.60;3.55;;;;;;;7.55;65.85;100178.50;4896296;29;20062;-93
2020/12/24 15:31:13;;;;;;;4.88;3.47;;;;;;;6.02;65.89;99918.75;4896742;29;20103;-93
2020/12/24 15:33:39;;;;;;;5.35;3.95;;;;;;;7.55;66.53;100171.50;4895222;29;20428;-93
2020/12/24 15:36:06;;;;;;;4.07;3.50;;;;;;;8.08;65.95;100256.59;4893252;29;20449;-93
2020/12/24 15:38:33;;;;;;;5.97;3.95;;;;;;;9.08;66.47;100423.00;4897296;29;20140;-93
2020/12/24 15:40:59;;;;;;;4.75;3.45;;;;;;;5.71;65.70;99883.94;4897557;29;20147;-93
2020/12/24 15:43:25;;;;;;;4.78;3.42;;;;;;;5.90;65.57;99917.06;4897416;29;20049;-93
2020/12/24 15:45:51;;;;;;;7.03;3.88;;;;;;;6.19;65.57;99990.09;4905391;29;20049;-93